sensor_id;sensor_type;location;lat;lon;timestamp;P1;durP1;ratioP1;P2;durP2;ratioP2
81217;SDS011;70689;52.494;13.420;2023-07-13T00:01:50;4.97;;;2.60;;
81217;SDS011;70689;52.494;13.420;2023-07-13T00:04:17;5.95;;;2.88;;
81217;SDS011;70689;52.494;13.420;2023-07-13T00:06:44;4.55;;;2.85;;
81217;SDS011;70689;52.494;13.420;2023-07-13T00:09:14;4.13;;;2.50;;
81217;SDS011;70689;52.494;13.420;2023-07-13T00:11:41;8.27;;;2.85;;
81217;SDS011;70689;52.494;13.420;2023-07-13T00:14:08;4.57;;;2.60;;
81217;SDS011;70689;52.494;13.420;2023-07-13T00:16:35;5.07;;;2.55;;
81217;SDS011;70689;52.494;13.420;2023-07-13T00:19:02;3.10;;;2.47;;
81217;SDS011;70689;52.494;13.420;2023-07-13T00:21:28;5.32;;;2.33;;
81217;SDS011;70689;52.494;13.420;2023-07-13T00:23:54;7.03;;;4.70;;
81217;SDS011;70689;52.494;13.420;2023-07-13T00:26:20;4.28;;;2.58;;
81217;SDS011;70689;52.494;13.420;2023-07-13T00:28:45;3.67;;;2.33;;
81217;SDS011;70689;52.494;13.420;2023-07-13T00:31:12;7.20;;;2.60;;
81217;SDS011;70689;52.494;13.420;2023-07-13T00:33:39;3.40;;;2.30;;
81217;SDS011;70689;52.494;13.420;2023-07-13T00:36:05;4.82;;;2.35;;
81217;SDS011;70689;52.494;13.420;2023-07-13T00:38:32;4.72;;;2.30;;
81217;SDS011;70689;52.494;13.420;2023-07-13T00:40:58;4.90;;;2.33;;
81217;SDS011;70689;52.494;13.420;2023-07-13T00:43:25;4.90;;;2.38;;
81217;SDS011;70689;52.494;13.420;2023-07-13T00:48:19;5.47;;;2.15;;
81217;SDS011;70689;52.494;13.420;2023-07-13T00:50:47;6.50;;;2.38;;
81217;SDS011;70689;52.494;13.420;2023-07-13T00:53:17;3.67;;;2.30;;
81217;SDS011;70689;52.494;13.420;2023-07-13T00:55:44;4.05;;;2.10;;
81217;SDS011;70689;52.494;13.420;2023-07-13T00:58:10;4.05;;;2.38;;
81217;SDS011;70689;52.494;13.420;2023-07-13T01:00:36;3.20;;;2.30;;
81217;SDS011;70689;52.494;13.420;2023-07-13T01:03:04;3.88;;;2.17;;
81217;SDS011;70689;52.494;13.420;2023-07-13T01:05:30;5.43;;;2.30;;
81217;SDS011;70689;52.494;13.420;2023-07-13T01:07:58;4.75;;;2.10;;
81217;SDS011;70689;52.494;13.420;2023-07-13T01:10:26;5.93;;;2.47;;
81217;SDS011;70689;52.494;13.420;2023-07-13T01:12:52;4.45;;;2.15;;
81217;SDS011;70689;52.494;13.420;2023-07-13T01:18:11;3.90;;;2.10;;
81217;SDS011;70689;52.494;13.420;2023-07-13T01:20:40;4.32;;;2.20;;
81217;SDS011;70689;52.494;13.420;2023-07-13T01:23:07;3.15;;;2.20;;
81217;SDS011;70689;52.494;13.420;2023-07-13T01:25:35;4.10;;;2.50;;
81217;SDS011;70689;52.494;13.420;2023-07-13T01:28:02;5.22;;;2.60;;
81217;SDS011;70689;52.494;13.420;2023-07-13T01:30:29;4.93;;;2.50;;
81217;SDS011;70689;52.494;13.420;2023-07-13T01:32:56;3.60;;;2.40;;
81217;SDS011;70689;52.494;13.420;2023-07-13T01:35:21;5.13;;;2.70;;
81217;SDS011;70689;52.494;13.420;2023-07-13T01:37:47;4.28;;;2.40;;
81217;SDS011;70689;52.494;13.420;2023-07-13T01:40:13;5.53;;;2.60;;
81217;SDS011;70689;52.494;13.420;2023-07-13T01:42:38;3.95;;;2.63;;
81217;SDS011;70689;52.494;13.420;2023-07-13T01:45:05;7.25;;;3.13;;
81217;SDS011;70689;52.494;13.420;2023-07-13T01:47:31;5.15;;;2.25;;
81217;SDS011;70689;52.494;13.420;2023-07-13T01:49:57;5.95;;;2.47;;
81217;SDS011;70689;52.494;13.420;2023-07-13T01:52:23;5.47;;;2.72;;
81217;SDS011;70689;52.494;13.420;2023-07-13T01:54:48;5.18;;;2.63;;
81217;SDS011;70689;52.494;13.420;2023-07-13T01:57:14;5.00;;;2.60;;
81217;SDS011;70689;52.494;13.420;2023-07-13T01:59:41;6.53;;;2.80;;
81217;SDS011;70689;52.494;13.420;2023-07-13T02:02:07;4.03;;;2.70;;
81217;SDS011;70689;52.494;13.420;2023-07-13T02:04:33;4.60;;;2.80;;
81217;SDS011;70689;52.494;13.420;2023-07-13T02:06:59;3.38;;;2.30;;
81217;SDS011;70689;52.494;13.420;2023-07-13T02:09:24;4.50;;;2.83;;
81217;SDS011;70689;52.494;13.420;2023-07-13T02:11:50;8.07;;;2.50;;
81217;SDS011;70689;52.494;13.420;2023-07-13T02:14:16;6.65;;;2.92;;
81217;SDS011;70689;52.494;13.420;2023-07-13T02:16:42;4.57;;;2.83;;
81217;SDS011;70689;52.494;13.420;2023-07-13T02:19:08;6.07;;;2.85;;
81217;SDS011;70689;52.494;13.420;2023-07-13T02:21:33;5.13;;;2.78;;
81217;SDS011;70689;52.494;13.420;2023-07-13T02:23:59;3.67;;;2.78;;
81217;SDS011;70689;52.494;13.420;2023-07-13T02:26:26;3.83;;;2.72;;
81217;SDS011;70689;52.494;13.420;2023-07-13T02:28:52;5.80;;;2.88;;
81217;SDS011;70689;52.494;13.420;2023-07-13T02:31:17;6.07;;;3.38;;
81217;SDS011;70689;52.494;13.420;2023-07-13T02:33:43;6.78;;;3.00;;
81217;SDS011;70689;52.494;13.420;2023-07-13T02:36:09;4.38;;;3.00;;
81217;SDS011;70689;52.494;13.420;2023-07-13T02:38:36;4.38;;;2.92;;
81217;SDS011;70689;52.494;13.420;2023-07-13T02:41:06;5.88;;;2.95;;
81217;SDS011;70689;52.494;13.420;2023-07-13T02:43:33;9.10;;;3.10;;
81217;SDS011;70689;52.494;13.420;2023-07-13T02:46:00;5.07;;;2.70;;
81217;SDS011;70689;52.494;13.420;2023-07-13T02:48:31;4.72;;;2.88;;
81217;SDS011;70689;52.494;13.420;2023-07-13T02:51:01;4.05;;;2.88;;
81217;SDS011;70689;52.494;13.420;2023-07-13T02:53:26;5.55;;;2.92;;
81217;SDS011;70689;52.494;13.420;2023-07-13T02:55:52;5.18;;;3.28;;
81217;SDS011;70689;52.494;13.420;2023-07-13T02:58:18;4.90;;;2.90;;
81217;SDS011;70689;52.494;13.420;2023-07-13T03:00:44;4.40;;;2.97;;
81217;SDS011;70689;52.494;13.420;2023-07-13T03:03:11;4.35;;;3.15;;
81217;SDS011;70689;52.494;13.420;2023-07-13T03:05:39;6.97;;;2.70;;
81217;SDS011;70689;52.494;13.420;2023-07-13T03:08:07;4.43;;;2.75;;
81217;SDS011;70689;52.494;13.420;2023-07-13T03:10:33;5.78;;;3.00;;
81217;SDS011;70689;52.494;13.420;2023-07-13T03:12:59;3.95;;;3.17;;
81217;SDS011;70689;52.494;13.420;2023-07-13T03:15:25;5.47;;;3.20;;
81217;SDS011;70689;52.494;13.420;2023-07-13T03:17:51;7.65;;;3.30;;
81217;SDS011;70689;52.494;13.420;2023-07-13T03:20:17;5.80;;;3.30;;
81217;SDS011;70689;52.494;13.420;2023-07-13T03:22:43;5.63;;;3.20;;
81217;SDS011;70689;52.494;13.420;2023-07-13T03:25:10;6.25;;;3.00;;
81217;SDS011;70689;52.494;13.420;2023-07-13T03:27:36;5.68;;;3.05;;
81217;SDS011;70689;52.494;13.420;2023-07-13T03:30:03;6.03;;;2.97;;
81217;SDS011;70689;52.494;13.420;2023-07-13T03:32:29;6.05;;;3.10;;
81217;SDS011;70689;52.494;13.420;2023-07-13T03:34:55;5.38;;;3.67;;
81217;SDS011;70689;52.494;13.420;2023-07-13T03:37:21;4.40;;;3.28;;
81217;SDS011;70689;52.494;13.420;2023-07-13T03:39:47;5.72;;;3.17;;
81217;SDS011;70689;52.494;13.420;2023-07-13T03:42:12;9.38;;;3.30;;
81217;SDS011;70689;52.494;13.420;2023-07-13T03:44:39;10.00;;;3.63;;
81217;SDS011;70689;52.494;13.420;2023-07-13T03:47:05;9.50;;;3.40;;
81217;SDS011;70689;52.494;13.420;2023-07-13T03:49:33;6.57;;;3.22;;
81217;SDS011;70689;52.494;13.420;2023-07-13T03:51:59;5.70;;;2.80;;
81217;SDS011;70689;52.494;13.420;2023-07-13T03:54:25;8.63;;;3.13;;
81217;SDS011;70689;52.494;13.420;2023-07-13T03:56:51;4.28;;;2.80;;
81217;SDS011;70689;52.494;13.420;2023-07-13T03:59:17;5.05;;;2.63;;
81217;SDS011;70689;52.494;13.420;2023-07-13T04:01:43;5.95;;;3.00;;
81217;SDS011;70689;52.494;13.420;2023-07-13T04:04:09;4.00;;;2.80;;
81217;SDS011;70689;52.494;13.420;2023-07-13T04:06:35;5.57;;;3.00;;
81217;SDS011;70689;52.494;13.420;2023-07-13T04:09:02;4.15;;;2.70;;
81217;SDS011;70689;52.494;13.420;2023-07-13T04:11:30;6.15;;;2.80;;
81217;SDS011;70689;52.494;13.420;2023-07-13T04:13:57;4.10;;;2.92;;
81217;SDS011;70689;52.494;13.420;2023-07-13T04:16:23;7.93;;;2.95;;
81217;SDS011;70689;52.494;13.420;2023-07-13T04:18:49;5.15;;;2.70;;
81217;SDS011;70689;52.494;13.420;2023-07-13T04:21:15;3.58;;;2.40;;
81217;SDS011;70689;52.494;13.420;2023-07-13T04:23:41;7.53;;;2.67;;
81217;SDS011;70689;52.494;13.420;2023-07-13T04:26:08;5.40;;;2.47;;
81217;SDS011;70689;52.494;13.420;2023-07-13T04:28:34;4.85;;;2.35;;
81217;SDS011;70689;52.494;13.420;2023-07-13T04:30:59;5.53;;;2.70;;
81217;SDS011;70689;52.494;13.420;2023-07-13T04:33:26;4.05;;;2.38;;
81217;SDS011;70689;52.494;13.420;2023-07-13T04:35:52;3.42;;;2.35;;
81217;SDS011;70689;52.494;13.420;2023-07-13T04:38:21;3.90;;;2.50;;
81217;SDS011;70689;52.494;13.420;2023-07-13T04:40:47;5.93;;;2.72;;
81217;SDS011;70689;52.494;13.420;2023-07-13T04:43:13;4.88;;;2.60;;
81217;SDS011;70689;52.494;13.420;2023-07-13T04:45:39;4.55;;;2.53;;
81217;SDS011;70689;52.494;13.420;2023-07-13T04:48:06;4.53;;;2.45;;
81217;SDS011;70689;52.494;13.420;2023-07-13T04:50:32;5.10;;;2.72;;
81217;SDS011;70689;52.494;13.420;2023-07-13T04:52:57;3.42;;;2.30;;
81217;SDS011;70689;52.494;13.420;2023-07-13T04:55:24;4.22;;;2.40;;
81217;SDS011;70689;52.494;13.420;2023-07-13T04:57:50;6.80;;;2.53;;
81217;SDS011;70689;52.494;13.420;2023-07-13T05:00:16;4.72;;;2.35;;
81217;SDS011;70689;52.494;13.420;2023-07-13T05:02:45;5.20;;;2.42;;
81217;SDS011;70689;52.494;13.420;2023-07-13T05:05:11;7.78;;;2.55;;
81217;SDS011;70689;52.494;13.420;2023-07-13T05:07:37;4.20;;;2.60;;
81217;SDS011;70689;52.494;13.420;2023-07-13T05:10:03;3.58;;;2.45;;
81217;SDS011;70689;52.494;13.420;2023-07-13T05:12:29;5.85;;;2.75;;
81217;SDS011;70689;52.494;13.420;2023-07-13T05:14:55;5.18;;;2.30;;
81217;SDS011;70689;52.494;13.420;2023-07-13T05:17:21;4.82;;;2.25;;
81217;SDS011;70689;52.494;13.420;2023-07-13T05:19:47;5.45;;;2.58;;
81217;SDS011;70689;52.494;13.420;2023-07-13T05:22:12;4.72;;;2.75;;
81217;SDS011;70689;52.494;13.420;2023-07-13T05:24:38;5.72;;;2.38;;
81217;SDS011;70689;52.494;13.420;2023-07-13T05:27:04;7.68;;;2.47;;
81217;SDS011;70689;52.494;13.420;2023-07-13T05:29:30;5.88;;;2.60;;
81217;SDS011;70689;52.494;13.420;2023-07-13T05:31:55;7.68;;;2.30;;
81217;SDS011;70689;52.494;13.420;2023-07-13T05:34:21;9.52;;;2.85;;
81217;SDS011;70689;52.494;13.420;2023-07-13T05:36:47;4.15;;;2.35;;
81217;SDS011;70689;52.494;13.420;2023-07-13T05:39:14;4.03;;;2.50;;
81217;SDS011;70689;52.494;13.420;2023-07-13T05:41:39;3.35;;;2.55;;
81217;SDS011;70689;52.494;13.420;2023-07-13T05:44:05;5.60;;;2.40;;
81217;SDS011;70689;52.494;13.420;2023-07-13T05:46:31;6.28;;;2.67;;
81217;SDS011;70689;52.494;13.420;2023-07-13T05:48:56;6.43;;;3.55;;
81217;SDS011;70689;52.494;13.420;2023-07-13T05:51:22;3.67;;;2.30;;
81217;SDS011;70689;52.494;13.420;2023-07-13T05:53:48;6.68;;;2.53;;
81217;SDS011;70689;52.494;13.420;2023-07-13T05:56:14;6.97;;;2.50;;
81217;SDS011;70689;52.494;13.420;2023-07-13T05:58:40;6.85;;;2.67;;
81217;SDS011;70689;52.494;13.420;2023-07-13T06:01:09;4.32;;;2.40;;
81217;SDS011;70689;52.494;13.420;2023-07-13T06:03:36;5.85;;;2.67;;
81217;SDS011;70689;52.494;13.420;2023-07-13T06:06:05;7.15;;;2.63;;
81217;SDS011;70689;52.494;13.420;2023-07-13T06:08:32;6.13;;;2.60;;
81217;SDS011;70689;52.494;13.420;2023-07-13T06:11:15;4.05;;;2.53;;
81217;SDS011;70689;52.494;13.420;2023-07-13T06:13:43;3.88;;;2.35;;
81217;SDS011;70689;52.494;13.420;2023-07-13T06:16:09;6.90;;;2.45;;
81217;SDS011;70689;52.494;13.420;2023-07-13T06:18:35;8.35;;;2.63;;
81217;SDS011;70689;52.494;13.420;2023-07-13T06:26:00;8.05;;;2.75;;
81217;SDS011;70689;52.494;13.420;2023-07-13T06:28:26;9.75;;;2.80;;
81217;SDS011;70689;52.494;13.420;2023-07-13T06:30:52;3.53;;;2.30;;
81217;SDS011;70689;52.494;13.420;2023-07-13T06:33:17;6.40;;;2.65;;
81217;SDS011;70689;52.494;13.420;2023-07-13T06:35:43;3.60;;;2.28;;
81217;SDS011;70689;52.494;13.420;2023-07-13T06:38:09;8.13;;;2.33;;
81217;SDS011;70689;52.494;13.420;2023-07-13T06:40:34;6.68;;;2.22;;
81217;SDS011;70689;52.494;13.420;2023-07-13T06:43:00;3.78;;;2.17;;
81217;SDS011;70689;52.494;13.420;2023-07-13T06:45:26;5.93;;;2.80;;
81217;SDS011;70689;52.494;13.420;2023-07-13T06:47:51;4.95;;;2.15;;
81217;SDS011;70689;52.494;13.420;2023-07-13T06:50:17;6.72;;;3.47;;
81217;SDS011;70689;52.494;13.420;2023-07-13T06:52:43;4.60;;;2.28;;
81217;SDS011;70689;52.494;13.420;2023-07-13T06:55:08;6.53;;;2.72;;
81217;SDS011;70689;52.494;13.420;2023-07-13T06:57:34;3.53;;;1.90;;
81217;SDS011;70689;52.494;13.420;2023-07-13T07:00:00;7.30;;;2.22;;
81217;SDS011;70689;52.494;13.420;2023-07-13T07:02:26;4.05;;;2.00;;
81217;SDS011;70689;52.494;13.420;2023-07-13T07:04:51;7.22;;;2.95;;
81217;SDS011;70689;52.494;13.420;2023-07-13T07:07:19;8.98;;;2.47;;
81217;SDS011;70689;52.494;13.420;2023-07-13T07:09:49;4.10;;;1.80;;
81217;SDS011;70689;52.494;13.420;2023-07-13T07:12:14;4.28;;;1.88;;
81217;SDS011;70689;52.494;13.420;2023-07-13T07:14:40;4.85;;;2.28;;
81217;SDS011;70689;52.494;13.420;2023-07-13T07:17:06;3.05;;;1.75;;
81217;SDS011;70689;52.494;13.420;2023-07-13T07:19:31;5.38;;;1.77;;
81217;SDS011;70689;52.494;13.420;2023-07-13T07:21:57;3.53;;;1.70;;
81217;SDS011;70689;52.494;13.420;2023-07-13T07:24:22;3.35;;;1.80;;
81217;SDS011;70689;52.494;13.420;2023-07-13T07:26:48;3.35;;;2.42;;
81217;SDS011;70689;52.494;13.420;2023-07-13T07:29:14;2.78;;;1.70;;
81217;SDS011;70689;52.494;13.420;2023-07-13T07:31:39;3.40;;;1.80;;
81217;SDS011;70689;52.494;13.420;2023-07-13T07:34:05;3.28;;;1.50;;
81217;SDS011;70689;52.494;13.420;2023-07-13T07:36:31;2.30;;;1.52;;
81217;SDS011;70689;52.494;13.420;2023-07-13T07:38:57;4.28;;;1.50;;
81217;SDS011;70689;52.494;13.420;2023-07-13T07:41:22;3.40;;;1.25;;
81217;SDS011;70689;52.494;13.420;2023-07-13T07:43:48;2.83;;;1.60;;
81217;SDS011;70689;52.494;13.420;2023-07-13T07:46:14;3.03;;;1.65;;
81217;SDS011;70689;52.494;13.420;2023-07-13T07:48:39;4.40;;;1.67;;
81217;SDS011;70689;52.494;13.420;2023-07-13T07:51:05;6.18;;;1.80;;
81217;SDS011;70689;52.494;13.420;2023-07-13T07:53:31;5.15;;;1.55;;
81217;SDS011;70689;52.494;13.420;2023-07-13T07:55:56;1.90;;;1.48;;
81217;SDS011;70689;52.494;13.420;2023-07-13T07:58:22;5.30;;;1.50;;
81217;SDS011;70689;52.494;13.420;2023-07-13T08:00:47;3.25;;;1.50;;
81217;SDS011;70689;52.494;13.420;2023-07-13T08:03:13;5.75;;;1.98;;
81217;SDS011;70689;52.494;13.420;2023-07-13T08:05:39;6.40;;;1.55;;
81217;SDS011;70689;52.494;13.420;2023-07-13T08:08:04;2.35;;;1.45;;
81217;SDS011;70689;52.494;13.420;2023-07-13T08:10:30;5.20;;;1.88;;
81217;SDS011;70689;52.494;13.420;2023-07-13T08:12:56;3.58;;;1.58;;
81217;SDS011;70689;52.494;13.420;2023-07-13T08:15:21;4.07;;;1.65;;
81217;SDS011;70689;52.494;13.420;2023-07-13T08:17:47;4.05;;;1.60;;
81217;SDS011;70689;52.494;13.420;2023-07-13T08:20:14;6.88;;;1.60;;
81217;SDS011;70689;52.494;13.420;2023-07-13T08:22:40;4.45;;;1.83;;
81217;SDS011;70689;52.494;13.420;2023-07-13T08:25:05;2.40;;;1.60;;
81217;SDS011;70689;52.494;13.420;2023-07-13T08:27:32;3.60;;;1.50;;
81217;SDS011;70689;52.494;13.420;2023-07-13T08:29:58;3.05;;;1.50;;
81217;SDS011;70689;52.494;13.420;2023-07-13T08:32:24;3.13;;;1.40;;
81217;SDS011;70689;52.494;13.420;2023-07-13T08:34:50;3.83;;;1.70;;
81217;SDS011;70689;52.494;13.420;2023-07-13T08:37:16;2.38;;;1.42;;
81217;SDS011;70689;52.494;13.420;2023-07-13T08:39:43;4.25;;;1.70;;
81217;SDS011;70689;52.494;13.420;2023-07-13T08:44:50;4.82;;;1.70;;
81217;SDS011;70689;52.494;13.420;2023-07-13T08:47:26;3.95;;;1.70;;
81217;SDS011;70689;52.494;13.420;2023-07-13T08:49:55;3.40;;;2.33;;
81217;SDS011;70689;52.494;13.420;2023-07-13T08:52:33;4.03;;;2.00;;
81217;SDS011;70689;52.494;13.420;2023-07-13T08:55:05;3.97;;;1.83;;
81217;SDS011;70689;52.494;13.420;2023-07-13T08:57:42;4.35;;;1.90;;
81217;SDS011;70689;52.494;13.420;2023-07-13T09:00:13;7.38;;;1.75;;
81217;SDS011;70689;52.494;13.420;2023-07-13T09:02:58;5.03;;;1.70;;
81217;SDS011;70689;52.494;13.420;2023-07-13T09:16:04;1.95;;;1.50;;
81217;SDS011;70689;52.494;13.420;2023-07-13T09:18:35;3.13;;;1.50;;
81217;SDS011;70689;52.494;13.420;2023-07-13T09:21:07;2.40;;;1.60;;
81217;SDS011;70689;52.494;13.420;2023-07-13T09:23:34;4.60;;;1.45;;
81217;SDS011;70689;52.494;13.420;2023-07-13T09:26:17;2.70;;;1.50;;
81217;SDS011;70689;52.494;13.420;2023-07-13T09:28:47;2.03;;;1.50;;
81217;SDS011;70689;52.494;13.420;2023-07-13T09:31:23;2.72;;;1.33;;
81217;SDS011;70689;52.494;13.420;2023-07-13T09:33:56;2.88;;;1.45;;
81217;SDS011;70689;52.494;13.420;2023-07-13T09:39:38;2.30;;;1.33;;
81217;SDS011;70689;52.494;13.420;2023-07-13T09:42:03;2.13;;;1.40;;
81217;SDS011;70689;52.494;13.420;2023-07-13T09:45:01;4.95;;;1.77;;
81217;SDS011;70689;52.494;13.420;2023-07-13T09:47:28;5.45;;;2.10;;
81217;SDS011;70689;52.494;13.420;2023-07-13T09:49:59;3.63;;;2.22;;
81217;SDS011;70689;52.494;13.420;2023-07-13T09:52:42;7.80;;;2.40;;
81217;SDS011;70689;52.494;13.420;2023-07-13T09:57:55;7.72;;;2.30;;
81217;SDS011;70689;52.494;13.420;2023-07-13T10:00:23;4.70;;;2.35;;
81217;SDS011;70689;52.494;13.420;2023-07-13T10:02:58;4.47;;;2.70;;
81217;SDS011;70689;52.494;13.420;2023-07-13T10:05:41;3.80;;;2.55;;
81217;SDS011;70689;52.494;13.420;2023-07-13T10:08:16;8.07;;;2.50;;
81217;SDS011;70689;52.494;13.420;2023-07-13T10:13:32;6.20;;;2.70;;
81217;SDS011;70689;52.494;13.420;2023-07-13T10:16:02;4.57;;;2.50;;
81217;SDS011;70689;52.494;13.420;2023-07-13T10:18:36;6.38;;;3.05;;
81217;SDS011;70689;52.494;13.420;2023-07-13T10:21:13;4.25;;;2.63;;
81217;SDS011;70689;52.494;13.420;2023-07-13T10:23:47;3.05;;;2.40;;
81217;SDS011;70689;52.494;13.420;2023-07-13T10:26:25;5.15;;;2.33;;
81217;SDS011;70689;52.494;13.420;2023-07-13T10:28:56;6.05;;;2.50;;
81217;SDS011;70689;52.494;13.420;2023-07-13T10:31:26;4.72;;;2.60;;
81217;SDS011;70689;52.494;13.420;2023-07-13T10:33:52;3.88;;;2.35;;
81217;SDS011;70689;52.494;13.420;2023-07-13T10:36:29;5.63;;;2.53;;
81217;SDS011;70689;52.494;13.420;2023-07-13T10:39:04;5.05;;;2.58;;
81217;SDS011;70689;52.494;13.420;2023-07-13T10:41:31;5.45;;;2.30;;
81217;SDS011;70689;52.494;13.420;2023-07-13T10:44:01;2.92;;;2.20;;
81217;SDS011;70689;52.494;13.420;2023-07-13T10:46:28;5.18;;;2.30;;
81217;SDS011;70689;52.494;13.420;2023-07-13T10:48:56;2.90;;;2.20;;
81217;SDS011;70689;52.494;13.420;2023-07-13T10:51:25;3.70;;;2.38;;
81217;SDS011;70689;52.494;13.420;2023-07-13T10:56:51;5.18;;;2.30;;
81217;SDS011;70689;52.494;13.420;2023-07-13T10:59:31;3.95;;;2.30;;
81217;SDS011;70689;52.494;13.420;2023-07-13T11:04:39;3.70;;;2.10;;
81217;SDS011;70689;52.494;13.420;2023-07-13T11:07:16;5.43;;;2.20;;
81217;SDS011;70689;52.494;13.420;2023-07-13T11:09:58;6.43;;;2.20;;
81217;SDS011;70689;52.494;13.420;2023-07-13T11:15:26;3.05;;;2.00;;
81217;SDS011;70689;52.494;13.420;2023-07-13T11:18:02;5.32;;;2.20;;
81217;SDS011;70689;52.494;13.420;2023-07-13T11:20:33;2.72;;;2.10;;
81217;SDS011;70689;52.494;13.420;2023-07-13T11:25:41;4.47;;;2.08;;
81217;SDS011;70689;52.494;13.420;2023-07-13T11:35:42;4.28;;;2.00;;
81217;SDS011;70689;52.494;13.420;2023-07-13T11:38:18;4.55;;;1.92;;
81217;SDS011;70689;52.494;13.420;2023-07-13T11:40:53;3.08;;;2.10;;
81217;SDS011;70689;52.494;13.420;2023-07-13T11:43:20;3.50;;;2.00;;
81217;SDS011;70689;52.494;13.420;2023-07-13T11:45:48;3.00;;;1.92;;
81217;SDS011;70689;52.494;13.420;2023-07-13T11:48:19;5.00;;;2.08;;
81217;SDS011;70689;52.494;13.420;2023-07-13T11:50:56;3.03;;;2.15;;
81217;SDS011;70689;52.494;13.420;2023-07-13T11:53:28;4.53;;;1.90;;
81217;SDS011;70689;52.494;13.420;2023-07-13T11:55:56;4.80;;;2.15;;
81217;SDS011;70689;52.494;13.420;2023-07-13T11:58:24;3.45;;;1.98;;
81217;SDS011;70689;52.494;13.420;2023-07-13T12:00:53;4.05;;;2.00;;
81217;SDS011;70689;52.494;13.420;2023-07-13T12:03:22;4.93;;;2.13;;
81217;SDS011;70689;52.494;13.420;2023-07-13T12:06:00;4.30;;;2.00;;
81217;SDS011;70689;52.494;13.420;2023-07-13T12:08:27;6.35;;;2.00;;
81217;SDS011;70689;52.494;13.420;2023-07-13T12:10:58;3.40;;;2.00;;
81217;SDS011;70689;52.494;13.420;2023-07-13T12:13:26;3.40;;;1.83;;
81217;SDS011;70689;52.494;13.420;2023-07-13T12:15:53;3.17;;;1.67;;
81217;SDS011;70689;52.494;13.420;2023-07-13T12:18:22;4.70;;;2.00;;
81217;SDS011;70689;52.494;13.420;2023-07-13T12:20:55;3.65;;;1.95;;
81217;SDS011;70689;52.494;13.420;2023-07-13T12:23:32;5.00;;;2.05;;
81217;SDS011;70689;52.494;13.420;2023-07-13T12:26:01;3.42;;;2.13;;
81217;SDS011;70689;52.494;13.420;2023-07-13T12:28:33;3.95;;;2.10;;
81217;SDS011;70689;52.494;13.420;2023-07-13T12:31:02;3.80;;;1.98;;
81217;SDS011;70689;52.494;13.420;2023-07-13T12:33:48;4.43;;;1.88;;
81217;SDS011;70689;52.494;13.420;2023-07-13T12:36:22;6.93;;;1.90;;
81217;SDS011;70689;52.494;13.420;2023-07-13T12:38:48;5.45;;;1.90;;
81217;SDS011;70689;52.494;13.420;2023-07-13T12:41:14;4.07;;;1.90;;
81217;SDS011;70689;52.494;13.420;2023-07-13T12:43:40;6.22;;;1.98;;
81217;SDS011;70689;52.494;13.420;2023-07-13T12:46:17;5.75;;;2.30;;
81217;SDS011;70689;52.494;13.420;2023-07-13T12:51:20;4.40;;;2.05;;
81217;SDS011;70689;52.494;13.420;2023-07-13T12:53:48;3.72;;;1.77;;
81217;SDS011;70689;52.494;13.420;2023-07-13T12:56:19;3.63;;;1.90;;
81217;SDS011;70689;52.494;13.420;2023-07-13T12:58:48;3.85;;;2.20;;
81217;SDS011;70689;52.494;13.420;2023-07-13T13:01:19;3.90;;;1.95;;
81217;SDS011;70689;52.494;13.420;2023-07-13T13:03:49;3.55;;;1.90;;
81217;SDS011;70689;52.494;13.420;2023-07-13T13:08:57;4.90;;;1.80;;
81217;SDS011;70689;52.494;13.420;2023-07-13T13:11:25;4.50;;;2.00;;
81217;SDS011;70689;52.494;13.420;2023-07-13T13:13:52;2.28;;;1.60;;
81217;SDS011;70689;52.494;13.420;2023-07-13T13:16:24;3.40;;;1.60;;
81217;SDS011;70689;52.494;13.420;2023-07-13T13:19:12;5.25;;;1.80;;
81217;SDS011;70689;52.494;13.420;2023-07-13T13:21:40;3.70;;;1.90;;
81217;SDS011;70689;52.494;13.420;2023-07-13T13:24:14;7.78;;;1.80;;
81217;SDS011;70689;52.494;13.420;2023-07-13T13:26:45;4.47;;;1.90;;
81217;SDS011;70689;52.494;13.420;2023-07-13T13:29:15;5.47;;;1.70;;
81217;SDS011;70689;52.494;13.420;2023-07-13T13:31:44;5.93;;;1.98;;
81217;SDS011;70689;52.494;13.420;2023-07-13T13:34:12;3.13;;;1.70;;
81217;SDS011;70689;52.494;13.420;2023-07-13T13:36:39;5.55;;;1.60;;
81217;SDS011;70689;52.494;13.420;2023-07-13T13:39:16;5.55;;;2.00;;
81217;SDS011;70689;52.494;13.420;2023-07-13T13:41:49;2.97;;;1.70;;
81217;SDS011;70689;52.494;13.420;2023-07-13T13:44:17;3.50;;;1.42;;
81217;SDS011;70689;52.494;13.420;2023-07-13T13:46:44;2.00;;;1.40;;
81217;SDS011;70689;52.494;13.420;2023-07-13T13:49:17;5.65;;;1.50;;
81217;SDS011;70689;52.494;13.420;2023-07-13T13:51:46;3.95;;;1.42;;
81217;SDS011;70689;52.494;13.420;2023-07-13T13:54:12;4.05;;;1.80;;
81217;SDS011;70689;52.494;13.420;2023-07-13T13:56:43;5.38;;;1.73;;
81217;SDS011;70689;52.494;13.420;2023-07-13T13:59:10;3.80;;;1.80;;
81217;SDS011;70689;52.494;13.420;2023-07-13T14:01:36;3.67;;;1.60;;
81217;SDS011;70689;52.494;13.420;2023-07-13T14:04:03;3.33;;;1.73;;
81217;SDS011;70689;52.494;13.420;2023-07-13T14:06:30;3.15;;;1.65;;
81217;SDS011;70689;52.494;13.420;2023-07-13T14:08:56;4.05;;;1.80;;
81217;SDS011;70689;52.494;13.420;2023-07-13T14:11:22;3.25;;;1.55;;
81217;SDS011;70689;52.494;13.420;2023-07-13T14:13:49;2.75;;;1.42;;
81217;SDS011;70689;52.494;13.420;2023-07-13T14:16:24;4.43;;;1.50;;
81217;SDS011;70689;52.494;13.420;2023-07-13T14:18:53;5.45;;;1.70;;
81217;SDS011;70689;52.494;13.420;2023-07-13T14:21:20;3.20;;;1.50;;
81217;SDS011;70689;52.494;13.420;2023-07-13T14:23:47;4.78;;;1.50;;
81217;SDS011;70689;52.494;13.420;2023-07-13T14:26:18;5.80;;;1.85;;
81217;SDS011;70689;52.494;13.420;2023-07-13T14:28:52;5.85;;;1.67;;
81217;SDS011;70689;52.494;13.420;2023-07-13T14:31:20;4.45;;;1.98;;
81217;SDS011;70689;52.494;13.420;2023-07-13T14:33:48;4.82;;;1.90;;
81217;SDS011;70689;52.494;13.420;2023-07-13T14:38:45;6.35;;;1.83;;
81217;SDS011;70689;52.494;13.420;2023-07-13T14:41:10;3.55;;;1.70;;
81217;SDS011;70689;52.494;13.420;2023-07-13T14:43:36;3.60;;;1.67;;
81217;SDS011;70689;52.494;13.420;2023-07-13T14:46:02;3.03;;;1.67;;
81217;SDS011;70689;52.494;13.420;2023-07-13T14:48:29;2.80;;;1.60;;
81217;SDS011;70689;52.494;13.420;2023-07-13T14:50:56;3.38;;;1.63;;
81217;SDS011;70689;52.494;13.420;2023-07-13T14:53:24;4.57;;;1.80;;
81217;SDS011;70689;52.494;13.420;2023-07-13T14:55:52;5.50;;;1.75;;
81217;SDS011;70689;52.494;13.420;2023-07-13T14:58:18;2.28;;;1.50;;
81217;SDS011;70689;52.494;13.420;2023-07-13T15:00:44;1.98;;;1.50;;
81217;SDS011;70689;52.494;13.420;2023-07-13T15:03:17;2.15;;;1.40;;
81217;SDS011;70689;52.494;13.420;2023-07-13T15:05:48;2.63;;;1.40;;
81217;SDS011;70689;52.494;13.420;2023-07-13T15:08:14;2.78;;;1.40;;
81217;SDS011;70689;52.494;13.420;2023-07-13T15:10:40;3.15;;;1.40;;
81217;SDS011;70689;52.494;13.420;2023-07-13T15:13:14;4.38;;;1.73;;
81217;SDS011;70689;52.494;13.420;2023-07-13T15:15:42;4.75;;;1.48;;
81217;SDS011;70689;52.494;13.420;2023-07-13T15:18:11;2.53;;;1.35;;
81217;SDS011;70689;52.494;13.420;2023-07-13T15:20:38;4.90;;;1.50;;
81217;SDS011;70689;52.494;13.420;2023-07-13T15:23:03;5.78;;;1.55;;
81217;SDS011;70689;52.494;13.420;2023-07-13T15:25:30;3.95;;;1.30;;
81217;SDS011;70689;52.494;13.420;2023-07-13T15:27:58;3.00;;;1.35;;
81217;SDS011;70689;52.494;13.420;2023-07-13T15:30:25;3.47;;;1.30;;
81217;SDS011;70689;52.494;13.420;2023-07-13T15:32:53;3.17;;;1.20;;
81217;SDS011;70689;52.494;13.420;2023-07-13T15:35:21;3.83;;;1.40;;
81217;SDS011;70689;52.494;13.420;2023-07-13T15:37:50;2.65;;;1.50;;